Oriskany, Virginia
Current Conditions -  °F | °C
As of 10:54 AM on Friday 31 Oct 2014 (Local Time) from KROA Reporting Station
Overcast Overcast  
Wind Chill: 46°   Ceiling: 5000
Heat Index: 46°   Visibility: 10mi
Dew Point: 36°   Wind: 0mph
Humidity: 68%   Direction: NA
Pressure: 29.99"   Gusts: NA
Location:  37.62°N, 79.98°W
Report Text: KROA 311454Z 00000KT 10SM SCT040 OVC050 08/02 A2999 RMK AO2 SLP155 T00780022 58006
Loading
Personal Weather Stations






























Interactive Weather Map
Tropical Storm Tracking
New forecast layout! Learn more

10-Day Weather Forecast

Advertisements
Track Severe Weather on mobile